createdAt,value
2022-10-12T00:00:28.711Z,62.10
2022-10-12T00:02:55.152Z,65.00
2022-10-12T00:05:21.597Z,66.00
2022-10-12T00:07:48.226Z,70.80
2022-10-12T00:10:14.778Z,70.80
2022-10-12T00:12:41.424Z,80.00
2022-10-12T00:15:08.479Z,100.50
2022-10-12T00:17:35.303Z,77.10
2022-10-12T00:20:03.607Z,74.30
2022-10-12T00:22:30.253Z,68.90
2022-10-12T00:24:56.792Z,63.40
2022-10-12T00:27:23.539Z,60.00
2022-10-12T00:29:49.955Z,66.20
2022-10-12T00:32:16.448Z,66.70
2022-10-12T00:34:42.898Z,71.10
2022-10-12T00:37:09.417Z,66.80
2022-10-12T00:39:36.140Z,66.80
2022-10-12T00:42:02.889Z,56.40
2022-10-12T00:44:46.122Z,61.40
2022-10-12T00:47:18.699Z,59.40
2022-10-12T00:50:17.075Z,56.70
2022-10-12T00:53:06.672Z,49.60
2022-10-12T00:55:38.250Z,59.40
2022-10-12T00:58:07.014Z,60.60
2022-10-12T01:00:34.754Z,52.50
2022-10-12T01:03:01.964Z,53.10
2022-10-12T01:05:28.623Z,54.20
2022-10-12T01:07:55.135Z,55.00
2022-10-12T01:10:21.568Z,54.30
2022-10-12T01:12:49.860Z,52.80
2022-10-12T01:15:17.536Z,52.50
2022-10-12T01:18:03.730Z,52.80
2022-10-12T01:20:57.923Z,52.20
2022-10-12T01:23:43.303Z,48.90
2022-10-12T01:26:23.942Z,54.50
2022-10-12T01:29:06.703Z,51.80
2022-10-12T01:31:40.409Z,59.80
2022-10-12T01:34:18.522Z,58.00
2022-10-12T01:36:53.023Z,57.50
2022-10-12T01:39:41.234Z,52.60
2022-10-12T01:42:14.563Z,46.80
2022-10-12T01:44:42.945Z,50.90
2022-10-12T01:47:09.639Z,47.80
2022-10-12T01:49:36.391Z,49.40
2022-10-12T01:52:29.852Z,48.90
2022-10-12T01:55:08.170Z,54.90
2022-10-12T01:57:58.881Z,49.00
2022-10-12T02:00:25.571Z,47.10
2022-10-12T02:02:59.560Z,53.00
2022-10-12T02:05:37.446Z,54.70
2022-10-12T02:08:27.132Z,64.20
2022-10-12T02:11:19.619Z,53.00
2022-10-12T02:13:59.334Z,56.70
2022-10-12T02:16:32.628Z,58.60
2022-10-12T02:19:00.609Z,54.50
2022-10-12T02:21:34.524Z,58.40
2022-10-12T02:24:06.142Z,52.40
2022-10-12T02:26:35.287Z,52.50
2022-10-12T02:29:05.513Z,64.10
2022-10-12T02:31:52.641Z,49.40
2022-10-12T02:34:25.638Z,54.20
2022-10-12T02:37:10.812Z,55.80
2022-10-12T02:40:02.347Z,56.30
2022-10-12T02:43:05.705Z,59.50
2022-10-12T02:45:26.419Z,52.60
2022-10-12T02:47:55.141Z,54.10
2022-10-12T02:50:23.862Z,52.90
2022-10-12T02:52:51.932Z,63.50
2022-10-12T02:55:19.172Z,58.30
2022-10-12T02:57:45.622Z,61.60
2022-10-12T03:00:12.972Z,68.60
2022-10-12T03:02:39.515Z,64.60
2022-10-12T03:05:06.591Z,62.30
2022-10-12T03:07:33.104Z,73.40
2022-10-12T03:09:59.743Z,66.80
2022-10-12T03:12:26.189Z,63.40
2022-10-12T03:14:52.721Z,63.70
2022-10-12T03:17:19.262Z,57.90
2022-10-12T03:19:45.804Z,58.00
2022-10-12T03:22:12.248Z,58.60
2022-10-12T03:24:38.782Z,60.60
2022-10-12T03:27:05.206Z,82.80
2022-10-12T03:29:31.665Z,88.30
2022-10-12T03:31:58.102Z,68.90
2022-10-12T03:34:24.517Z,108.40
2022-10-12T03:36:51.006Z,101.10
2022-10-12T03:39:17.489Z,103.40
2022-10-12T03:41:43.963Z,176.70
2022-10-12T03:44:10.403Z,216.30
2022-10-12T03:46:36.941Z,165.00
2022-10-12T03:49:03.495Z,122.00
2022-10-12T03:51:30.021Z,102.40
2022-10-12T03:53:56.508Z,108.10
2022-10-12T03:56:23.003Z,85.60
2022-10-12T03:58:49.546Z,88.50
2022-10-12T04:01:16.262Z,108.80
2022-10-12T04:03:42.834Z,237.00
2022-10-12T04:06:09.368Z,205.50
2022-10-12T04:08:35.887Z,279.60
2022-10-12T04:11:02.321Z,285.20
2022-10-12T04:13:28.734Z,213.30
2022-10-12T04:15:55.203Z,242.30
2022-10-12T04:18:21.670Z,166.40
2022-10-12T04:20:49.337Z,221.50
2022-10-12T04:23:16.282Z,172.00
2022-10-12T04:25:42.828Z,215.00
2022-10-12T04:28:09.319Z,195.80
2022-10-12T04:30:35.907Z,236.80
2022-10-12T04:33:02.447Z,222.50
2022-10-12T04:35:28.988Z,211.10
2022-10-12T04:37:55.526Z,217.50
2022-10-12T04:40:22.582Z,212.90
2022-10-12T04:42:49.024Z,225.90
2022-10-12T04:45:15.551Z,247.00
2022-10-12T04:47:41.997Z,207.80
2022-10-12T04:50:08.741Z,157.70
2022-10-12T04:52:35.260Z,139.90
2022-10-12T04:55:01.720Z,159.00
2022-10-12T04:57:28.141Z,135.60
2022-10-12T04:59:54.698Z,119.70
2022-10-12T05:02:21.238Z,102.70
2022-10-12T05:04:47.787Z,120.80
2022-10-12T05:07:14.464Z,102.00
2022-10-12T05:09:40.925Z,123.20
2022-10-12T05:12:07.514Z,121.00
2022-10-12T05:14:35.967Z,153.20
2022-10-12T05:17:03.050Z,122.40
2022-10-12T05:19:29.535Z,145.40
2022-10-12T05:21:56.109Z,176.40
2022-10-12T05:24:23.090Z,173.80
2022-10-12T05:26:49.733Z,233.50
2022-10-12T05:29:16.271Z,238.70
2022-10-12T05:31:42.687Z,261.40
2022-10-12T05:34:09.263Z,219.50
2022-10-12T05:36:35.791Z,207.40
2022-10-12T05:39:02.432Z,239.70
2022-10-12T05:41:29.180Z,226.30
2022-10-12T05:43:55.723Z,223.50
2022-10-12T05:46:22.266Z,232.50
2022-10-12T05:48:48.807Z,220.60
2022-10-12T05:51:15.443Z,211.70
2022-10-12T05:53:41.945Z,170.50
2022-10-12T05:56:08.525Z,187.10
2022-10-12T05:58:35.062Z,136.50
2022-10-12T06:01:13.485Z,149.00
2022-10-12T06:03:40.834Z,168.20
2022-10-12T06:06:07.831Z,202.50
2022-10-12T06:08:34.747Z,179.10
2022-10-12T06:11:01.383Z,163.00
2022-10-12T06:13:28.036Z,263.80
2022-10-12T06:15:54.782Z,199.50
2022-10-12T06:18:21.379Z,185.60
2022-10-12T06:21:08.831Z,139.80
2022-10-12T06:23:40.013Z,212.30
2022-10-12T06:26:07.272Z,219.30
2022-10-12T06:28:33.870Z,169.50
2022-10-12T06:31:00.795Z,145.50
2022-10-12T06:33:27.928Z,139.00
2022-10-12T06:35:55.279Z,119.30
2022-10-12T06:38:22.329Z,124.70
2022-10-12T06:40:48.974Z,128.70
2022-10-12T06:43:15.517Z,153.50
2022-10-12T06:45:42.057Z,105.00
2022-10-12T06:48:08.795Z,104.30
2022-10-12T06:50:35.547Z,101.70
2022-10-12T06:53:02.177Z,90.20
2022-10-12T06:55:29.246Z,86.50
2022-10-12T06:57:56.515Z,87.40
2022-10-12T07:00:23.914Z,77.50
2022-10-12T07:02:51.837Z,63.10
2022-10-12T07:05:19.096Z,90.10
2022-10-12T07:07:45.632Z,89.50
2022-10-12T07:10:12.033Z,66.80
2022-10-12T07:12:39.415Z,68.60
2022-10-12T07:15:08.017Z,64.00
2022-10-12T07:17:34.666Z,59.40
2022-10-12T07:20:01.234Z,64.70
2022-10-12T07:22:27.842Z,65.70
2022-10-12T07:24:54.259Z,60.30
2022-10-12T07:27:20.922Z,55.60
2022-10-12T07:29:47.461Z,61.90
2022-10-12T07:32:14.104Z,46.60
2022-10-12T07:34:44.699Z,65.60
2022-10-12T07:37:11.593Z,56.40
2022-10-12T07:39:38.033Z,54.20
2022-10-12T07:42:04.572Z,53.90
2022-10-12T07:44:31.114Z,51.00
2022-10-12T07:46:57.976Z,48.20
2022-10-12T07:49:24.464Z,50.40
2022-10-12T07:51:50.941Z,57.50
2022-10-12T07:54:20.936Z,51.30
2022-10-12T07:56:47.708Z,53.40
2022-10-12T07:59:14.355Z,54.60
2022-10-12T08:01:43.214Z,55.10
2022-10-12T08:04:10.587Z,56.50
2022-10-12T08:06:37.416Z,49.70
2022-10-12T08:09:04.633Z,44.70
2022-10-12T08:11:31.148Z,45.30
2022-10-12T08:13:57.858Z,44.20
2022-10-12T08:16:24.508Z,41.50
2022-10-12T08:18:51.363Z,38.60
2022-10-12T08:21:18.738Z,37.80
2022-10-12T08:23:46.326Z,41.80
2022-10-12T08:26:14.299Z,46.60
2022-10-12T08:28:40.830Z,43.40
2022-10-12T08:31:09.661Z,41.50
2022-10-12T08:33:36.484Z,48.40
2022-10-12T08:36:05.405Z,40.40
2022-10-12T08:38:32.038Z,40.20
2022-10-12T08:41:06.352Z,45.50
2022-10-12T08:44:08.216Z,41.90
2022-10-12T08:46:35.270Z,55.10
2022-10-12T08:49:12.519Z,49.40
2022-10-12T08:51:49.889Z,39.30
2022-10-12T08:54:19.944Z,39.20
2022-10-12T08:56:46.635Z,44.80
2022-10-12T08:59:17.070Z,40.00
2022-10-12T09:01:51.597Z,42.30
2022-10-12T09:04:52.633Z,40.50
2022-10-12T09:07:37.052Z,41.90
2022-10-12T09:10:18.823Z,43.60
2022-10-12T09:13:04.271Z,43.70
2022-10-12T09:15:54.774Z,45.30
2022-10-12T09:18:37.042Z,46.00
2022-10-12T09:21:08.842Z,45.50
2022-10-12T09:23:39.975Z,39.10
2022-10-12T09:28:44.178Z,44.80
2022-10-12T09:31:10.795Z,30.80
2022-10-12T09:33:45.203Z,32.90
2022-10-12T09:36:19.738Z,27.90
2022-10-12T09:38:47.577Z,25.20
2022-10-12T09:41:22.773Z,33.70
2022-10-12T09:43:56.605Z,28.80
2022-10-12T09:46:31.806Z,29.30
2022-10-12T09:49:00.496Z,27.00
2022-10-12T09:51:29.801Z,34.10
2022-10-12T09:53:57.894Z,27.30
2022-10-12T09:56:28.922Z,23.80
2022-10-12T10:01:30.275Z,20.40
2022-10-12T10:04:22.780Z,22.30
2022-10-12T10:06:49.910Z,18.90
2022-10-12T10:09:32.052Z,12.40
2022-10-12T10:12:13.913Z,18.10
2022-10-12T10:14:44.448Z,19.80
2022-10-12T10:17:25.322Z,14.20
2022-10-12T10:19:52.795Z,6.30
2022-10-12T10:22:20.398Z,7.40
2022-10-12T10:24:59.097Z,9.20
2022-10-12T10:27:36.057Z,8.80
2022-10-12T10:30:29.613Z,10.10
2022-10-12T10:33:17.386Z,9.10
2022-10-12T10:35:58.246Z,11.10
2022-10-12T10:38:25.402Z,10.50
2022-10-12T10:40:54.511Z,10.10
2022-10-12T10:43:27.282Z,8.50
2022-10-12T10:45:57.216Z,9.20
2022-10-12T10:48:29.375Z,8.90
2022-10-12T10:51:05.095Z,7.60
2022-10-12T10:53:43.469Z,11.30
2022-10-12T10:56:18.803Z,6.10
2022-10-12T10:58:56.946Z,7.80
2022-10-12T11:01:36.055Z,9.20
2022-10-12T11:04:07.956Z,7.40
2022-10-12T11:06:43.246Z,7.60
2022-10-12T11:09:37.846Z,8.30
2022-10-12T11:12:15.975Z,12.30
2022-10-12T11:14:54.071Z,8.60
2022-10-12T11:17:27.367Z,8.40
2022-10-12T11:20:06.199Z,9.10
2022-10-12T11:22:47.695Z,6.80
2022-10-12T11:25:59.238Z,7.20
2022-10-12T11:28:30.945Z,11.00
2022-10-12T11:30:57.997Z,8.70
2022-10-12T11:33:33.704Z,7.40
2022-10-12T11:36:01.735Z,9.50
2022-10-12T11:38:35.905Z,8.00
2022-10-12T11:41:34.396Z,12.90
2022-10-12T11:44:29.273Z,10.00
2022-10-12T11:47:25.379Z,11.20
2022-10-12T11:49:58.777Z,8.50
2022-10-12T11:52:29.874Z,9.70
2022-10-12T11:55:06.620Z,8.30
2022-10-12T11:57:37.647Z,8.60
2022-10-12T12:00:18.267Z,67.30
2022-10-12T12:02:52.456Z,42.20
2022-10-12T12:05:19.139Z,10.10
2022-10-12T12:07:49.791Z,11.60
2022-10-12T12:10:25.477Z,8.80
2022-10-12T12:13:10.378Z,8.90
2022-10-12T12:15:37.705Z,17.50
2022-10-12T12:18:12.436Z,10.20
2022-10-12T12:20:42.046Z,6.70
2022-10-12T12:23:33.063Z,8.30
2022-10-12T12:26:16.284Z,7.30
2022-10-12T12:28:46.747Z,16.10
2022-10-12T12:31:17.880Z,9.70
2022-10-12T12:36:48.691Z,23.00
2022-10-12T12:39:30.136Z,15.40
2022-10-12T12:42:02.323Z,43.80
2022-10-12T12:44:35.210Z,17.10
2022-10-12T12:47:01.618Z,7.40
2022-10-12T12:49:57.716Z,11.60
2022-10-12T12:52:24.208Z,11.50
2022-10-12T12:55:28.678Z,14.20
2022-10-12T12:58:14.227Z,10.10
2022-10-12T13:01:02.573Z,8.00
2022-10-12T13:04:01.497Z,6.00
2022-10-12T13:06:36.935Z,8.20
2022-10-12T13:09:18.180Z,8.30
2022-10-12T13:12:06.573Z,8.20
2022-10-12T13:14:39.582Z,6.90
2022-10-12T13:17:32.656Z,6.00
2022-10-12T13:20:10.808Z,8.40
2022-10-12T13:22:39.906Z,7.50
2022-10-12T13:25:12.720Z,19.20
2022-10-12T13:27:53.236Z,12.40
2022-10-12T13:30:42.836Z,15.50
2022-10-12T13:33:15.379Z,16.50
2022-10-12T13:36:05.291Z,10.40
2022-10-12T13:38:33.543Z,5.00
2022-10-12T13:41:10.978Z,6.90
2022-10-12T13:43:58.267Z,22.30
2022-10-12T13:46:54.556Z,13.90
2022-10-12T13:49:30.462Z,11.10
2022-10-12T13:52:20.148Z,19.70
2022-10-12T13:54:48.851Z,6.70
2022-10-12T13:57:35.658Z,12.30
2022-10-12T14:00:09.470Z,9.20
2022-10-12T14:02:36.509Z,11.20
2022-10-12T14:05:04.999Z,7.40
2022-10-12T14:07:42.537Z,9.30
2022-10-12T14:10:29.417Z,11.30
2022-10-12T14:12:56.879Z,9.00
2022-10-12T14:15:27.957Z,8.50
2022-10-12T14:17:54.468Z,13.00
2022-10-12T14:20:31.967Z,7.50
2022-10-12T14:23:01.092Z,13.90
2022-10-12T14:25:30.477Z,21.50
2022-10-12T14:28:00.334Z,26.10
2022-10-12T14:30:32.713Z,11.00
2022-10-12T14:33:17.438Z,22.70
2022-10-12T14:35:46.638Z,11.50
2022-10-12T14:38:48.617Z,10.90
2022-10-12T14:41:48.954Z,24.80
2022-10-12T14:44:17.848Z,11.30
2022-10-12T14:46:53.910Z,8.50
2022-10-12T14:49:30.377Z,9.90
2022-10-12T14:51:59.518Z,8.90
2022-10-12T14:54:26.234Z,9.90
2022-10-12T14:56:52.674Z,7.70
2022-10-12T14:59:19.525Z,10.10
2022-10-12T15:01:48.996Z,14.20
2022-10-12T15:04:17.785Z,9.80
2022-10-12T15:06:49.814Z,16.00
2022-10-12T15:09:17.335Z,14.70
2022-10-12T15:11:43.895Z,11.50
2022-10-12T15:14:11.307Z,14.00
2022-10-12T15:16:37.743Z,15.60
2022-10-12T15:19:04.217Z,14.20
2022-10-12T15:21:30.742Z,12.60
2022-10-12T15:23:57.149Z,17.30
2022-10-12T15:26:23.642Z,24.70
2022-10-12T15:28:50.538Z,28.60
2022-10-12T15:31:18.539Z,23.70
2022-10-12T15:33:46.134Z,16.50
2022-10-12T15:36:12.673Z,14.60
2022-10-12T15:38:39.725Z,20.10
2022-10-12T15:41:06.671Z,90.80
2022-10-12T15:43:35.616Z,56.50
2022-10-12T15:46:04.899Z,117.80
2022-10-12T15:48:31.362Z,108.20
2022-10-12T15:50:58.107Z,79.80
2022-10-12T15:53:26.397Z,205.10
2022-10-12T15:55:54.622Z,111.30
2022-10-12T15:58:22.191Z,45.20
2022-10-12T16:00:49.455Z,77.50
2022-10-12T16:03:25.621Z,56.20
2022-10-12T16:05:53.179Z,47.50
2022-10-12T16:08:19.725Z,108.00
2022-10-12T16:10:46.263Z,122.10
2022-10-12T16:13:13.831Z,194.30
2022-10-12T16:15:41.922Z,54.10
2022-10-12T16:18:09.372Z,111.40
2022-10-12T16:20:37.889Z,62.50
2022-10-12T16:23:07.675Z,52.10
2022-10-12T16:25:35.220Z,47.60
2022-10-12T16:28:01.878Z,135.50
2022-10-12T16:30:28.518Z,42.10
2022-10-12T16:32:55.161Z,164.80
2022-10-12T16:35:22.111Z,80.90
2022-10-12T16:37:48.962Z,56.90
2022-10-12T16:40:15.889Z,61.70
2022-10-12T16:42:42.853Z,58.50
2022-10-12T16:45:10.447Z,61.90
2022-10-12T16:47:42.765Z,56.70
2022-10-12T16:50:10.492Z,47.90
2022-10-12T16:52:37.071Z,74.00
2022-10-12T16:55:04.679Z,45.70
2022-10-12T16:57:31.111Z,67.90
2022-10-12T16:59:57.509Z,49.10
2022-10-12T17:02:24.396Z,50.00
2022-10-12T17:04:50.935Z,55.10
2022-10-12T17:07:17.591Z,47.10
2022-10-12T17:09:44.077Z,60.10
2022-10-12T17:12:10.656Z,64.50
2022-10-12T17:14:37.812Z,53.70
2022-10-12T17:17:04.965Z,54.40
2022-10-12T17:19:34.357Z,49.70
2022-10-12T17:22:02.922Z,57.80
2022-10-12T17:24:31.959Z,107.80
2022-10-12T17:26:59.318Z,97.30
2022-10-12T17:29:27.602Z,83.10
2022-10-12T17:31:54.796Z,99.10
2022-10-12T17:34:26.934Z,94.00
2022-10-12T17:36:55.409Z,94.50
2022-10-12T17:39:22.824Z,90.60
2022-10-12T17:41:49.514Z,113.50
2022-10-12T17:44:16.052Z,109.90
2022-10-12T17:46:44.045Z,98.90
2022-10-12T17:49:23.512Z,105.20
2022-10-12T17:51:51.235Z,118.30
2022-10-12T17:54:19.210Z,119.70
2022-10-12T17:56:46.162Z,128.80
2022-10-12T17:59:18.234Z,122.50
2022-10-12T18:01:45.072Z,126.70
2022-10-12T18:04:12.857Z,156.20
2022-10-12T18:06:39.896Z,106.30
2022-10-12T18:09:08.108Z,105.60
2022-10-12T18:11:35.923Z,134.60
2022-10-12T18:14:02.993Z,166.90
2022-10-12T18:16:34.079Z,72.10
2022-10-12T18:19:02.596Z,99.90
2022-10-12T18:21:31.533Z,132.20
2022-10-12T18:24:00.910Z,105.30
2022-10-12T18:26:27.475Z,98.70
2022-10-12T18:28:54.119Z,93.30
2022-10-12T18:31:23.146Z,141.30
2022-10-12T18:33:50.576Z,93.40
2022-10-12T18:36:18.039Z,89.00
2022-10-12T18:38:44.697Z,94.30
2022-10-12T18:41:14.601Z,72.60
2022-10-12T18:43:41.441Z,91.40
2022-10-12T18:46:14.173Z,86.50
2022-10-12T18:48:40.978Z,131.70
2022-10-12T18:51:14.920Z,92.60
2022-10-12T18:53:42.121Z,85.60
2022-10-12T18:56:09.093Z,87.50
2022-10-12T18:58:35.734Z,89.30
2022-10-12T19:01:02.222Z,101.30
2022-10-12T19:03:28.814Z,117.60
2022-10-12T19:06:04.468Z,132.90
2022-10-12T19:08:30.974Z,130.00
2022-10-12T19:10:57.400Z,138.50
2022-10-12T19:13:23.876Z,128.80
2022-10-12T19:15:50.440Z,119.60
2022-10-12T19:18:17.055Z,102.90
2022-10-12T19:20:43.595Z,113.10
2022-10-12T19:23:10.135Z,98.90
2022-10-12T19:25:37.902Z,100.10
2022-10-12T19:28:04.489Z,114.90
2022-10-12T19:30:31.014Z,133.70
2022-10-12T19:32:57.527Z,120.10
2022-10-12T19:35:24.111Z,107.00
2022-10-12T19:37:50.805Z,90.90
2022-10-12T19:40:17.346Z,93.10
2022-10-12T19:42:43.884Z,103.60
2022-10-12T19:45:10.936Z,101.60
2022-10-12T19:47:37.391Z,105.40
2022-10-12T19:50:04.325Z,106.60
2022-10-12T19:52:30.864Z,112.00
2022-10-12T19:54:57.401Z,103.10
2022-10-12T19:57:24.041Z,90.80
2022-10-12T19:59:50.580Z,89.00
2022-10-12T20:02:17.359Z,101.20
2022-10-12T20:04:44.061Z,118.00
2022-10-12T20:07:10.478Z,122.90
2022-10-12T20:09:37.042Z,135.80
2022-10-12T20:12:03.685Z,115.50
2022-10-12T20:14:30.288Z,120.80
2022-10-12T20:16:56.719Z,124.80
2022-10-12T20:19:23.403Z,122.10
2022-10-12T20:21:49.945Z,117.50
2022-10-12T20:24:16.481Z,130.10
2022-10-12T20:26:43.023Z,124.00
2022-10-12T20:29:09.562Z,128.10
2022-10-12T20:31:36.099Z,122.50
2022-10-12T20:34:02.946Z,114.70
2022-10-12T20:36:30.904Z,111.20
2022-10-12T20:38:58.785Z,124.90
2022-10-12T20:41:26.146Z,120.40
2022-10-12T20:44:00.471Z,123.20
2022-10-12T20:46:28.080Z,112.90
2022-10-12T20:49:01.933Z,130.10
2022-10-12T20:51:31.779Z,140.00
2022-10-12T20:53:59.228Z,133.30
2022-10-12T20:56:27.640Z,138.40
2022-10-12T20:58:54.748Z,143.50
2022-10-12T21:01:22.128Z,144.00
2022-10-12T21:03:49.176Z,145.60
2022-10-12T21:06:16.658Z,154.50
2022-10-12T21:08:43.879Z,152.00
2022-10-12T21:11:11.264Z,150.30
2022-10-12T21:13:39.307Z,137.40
2022-10-12T21:16:06.240Z,142.60
2022-10-12T21:18:37.688Z,137.20
2022-10-12T21:21:07.802Z,137.20
2022-10-12T21:23:34.514Z,122.20
2022-10-12T21:26:12.503Z,125.90
2022-10-12T21:28:39.456Z,132.40
2022-10-12T21:31:06.694Z,116.70
2022-10-12T21:33:35.232Z,125.50
2022-10-12T21:36:20.268Z,127.80
2022-10-12T21:38:47.509Z,122.10
2022-10-12T21:41:15.992Z,118.60
2022-10-12T21:43:43.079Z,123.50
2022-10-12T21:46:16.245Z,120.70
2022-10-12T21:48:43.197Z,126.40
2022-10-12T21:51:10.151Z,124.30
2022-10-12T21:53:38.055Z,122.30
2022-10-12T21:56:10.105Z,124.00
2022-10-12T21:58:36.731Z,119.50
2022-10-12T22:01:13.376Z,112.00
2022-10-12T22:03:41.289Z,104.60
2022-10-12T22:06:13.103Z,101.40
2022-10-12T22:08:39.571Z,114.40
2022-10-12T22:11:08.485Z,104.20
2022-10-12T22:13:35.133Z,107.70
2022-10-12T22:16:10.769Z,98.50
2022-10-12T22:18:37.801Z,101.30
2022-10-12T22:21:16.614Z,92.10
2022-10-12T22:23:44.943Z,88.60
2022-10-12T22:26:14.579Z,92.30
2022-10-12T22:28:41.418Z,89.40
2022-10-12T22:31:09.270Z,96.40
2022-10-12T22:33:37.038Z,104.50
2022-10-12T22:36:05.235Z,104.80
2022-10-12T22:38:33.292Z,90.10
2022-10-12T22:41:13.241Z,91.90
2022-10-12T22:43:39.887Z,91.80
2022-10-12T22:46:07.146Z,112.80
2022-10-12T22:48:35.389Z,112.90
2022-10-12T22:51:02.888Z,113.40
2022-10-12T22:53:30.170Z,117.30
2022-10-12T22:56:14.762Z,118.70
2022-10-12T22:58:41.257Z,117.20
2022-10-12T23:01:13.927Z,112.50
2022-10-12T23:03:41.288Z,106.90
2022-10-12T23:06:09.062Z,116.20
2022-10-12T23:08:36.520Z,120.40
2022-10-12T23:11:15.566Z,113.40
2022-10-12T23:13:43.124Z,111.50
2022-10-12T23:16:22.013Z,108.90
2022-10-12T23:18:56.736Z,108.00
2022-10-12T23:21:26.290Z,99.20
2022-10-12T23:23:52.833Z,100.90
2022-10-12T23:26:22.342Z,88.90
2022-10-12T23:28:50.877Z,93.60
2022-10-12T23:31:20.747Z,96.20
2022-10-12T23:33:48.195Z,91.30
2022-10-12T23:36:17.490Z,84.50
2022-10-12T23:38:45.128Z,95.90
2022-10-12T23:41:13.059Z,83.00
2022-10-12T23:43:39.982Z,81.20
2022-10-12T23:46:06.988Z,83.70
2022-10-12T23:48:34.212Z,82.20
2022-10-12T23:51:01.254Z,90.60
2022-10-12T23:53:28.203Z,87.60
2022-10-12T23:55:54.842Z,86.40
2022-10-12T23:58:21.891Z,90.70
